sensor_id;sensor_type;location;lat;lon;timestamp;P1;durP1;ratioP1;P2;durP2;ratioP2
52848;SDS011;38714;53.180;5.812;2024-02-21T00:01:37;8.35;;;1.60;;
52848;SDS011;38714;53.180;5.812;2024-02-21T00:04:02;5.53;;;1.40;;
52848;SDS011;38714;53.180;5.812;2024-02-21T00:06:28;3.70;;;1.23;;
52848;SDS011;38714;53.180;5.812;2024-02-21T00:08:54;6.80;;;1.38;;
52848;SDS011;38714;53.180;5.812;2024-02-21T00:11:20;7.72;;;1.67;;
52848;SDS011;38714;53.180;5.812;2024-02-21T00:13:46;5.65;;;1.70;;
52848;SDS011;38714;53.180;5.812;2024-02-21T00:16:11;3.55;;;1.60;;
52848;SDS011;38714;53.180;5.812;2024-02-21T00:18:38;5.72;;;3.55;;
52848;SDS011;38714;53.180;5.812;2024-02-21T00:21:04;6.93;;;2.47;;
52848;SDS011;38714;53.180;5.812;2024-02-21T00:23:29;5.63;;;2.28;;
52848;SDS011;38714;53.180;5.812;2024-02-21T00:25:55;9.25;;;1.48;;
52848;SDS011;38714;53.180;5.812;2024-02-21T00:28:20;4.07;;;1.77;;
52848;SDS011;38714;53.180;5.812;2024-02-21T00:30:46;9.70;;;3.60;;
52848;SDS011;38714;53.180;5.812;2024-02-21T00:33:13;9.32;;;2.28;;
52848;SDS011;38714;53.180;5.812;2024-02-21T00:35:39;4.65;;;1.85;;
52848;SDS011;38714;53.180;5.812;2024-02-21T00:38:04;7.40;;;1.58;;
52848;SDS011;38714;53.180;5.812;2024-02-21T00:40:30;11.35;;;3.15;;
52848;SDS011;38714;53.180;5.812;2024-02-21T00:42:55;5.40;;;1.02;;
52848;SDS011;38714;53.180;5.812;2024-02-21T00:45:21;3.38;;;1.35;;
52848;SDS011;38714;53.180;5.812;2024-02-21T00:47:47;3.92;;;2.03;;
52848;SDS011;38714;53.180;5.812;2024-02-21T00:50:12;6.22;;;2.63;;
52848;SDS011;38714;53.180;5.812;2024-02-21T00:52:38;10.40;;;2.88;;
52848;SDS011;38714;53.180;5.812;2024-02-21T00:55:04;8.82;;;1.80;;
52848;SDS011;38714;53.180;5.812;2024-02-21T00:57:30;9.95;;;1.65;;
52848;SDS011;38714;53.180;5.812;2024-02-21T00:59:56;8.68;;;2.65;;
52848;SDS011;38714;53.180;5.812;2024-02-21T01:02:22;4.72;;;1.35;;
52848;SDS011;38714;53.180;5.812;2024-02-21T01:04:48;22.33;;;2.95;;
52848;SDS011;38714;53.180;5.812;2024-02-21T01:07:13;5.70;;;1.90;;
52848;SDS011;38714;53.180;5.812;2024-02-21T01:09:39;9.43;;;3.72;;
52848;SDS011;38714;53.180;5.812;2024-02-21T01:12:05;3.83;;;1.95;;
52848;SDS011;38714;53.180;5.812;2024-02-21T01:14:30;3.00;;;2.05;;
52848;SDS011;38714;53.180;5.812;2024-02-21T01:16:56;8.82;;;2.17;;
52848;SDS011;38714;53.180;5.812;2024-02-21T01:19:22;5.57;;;2.95;;
52848;SDS011;38714;53.180;5.812;2024-02-21T01:21:47;5.22;;;1.90;;
52848;SDS011;38714;53.180;5.812;2024-02-21T01:24:13;9.02;;;2.22;;
52848;SDS011;38714;53.180;5.812;2024-02-21T01:26:39;6.25;;;2.15;;
52848;SDS011;38714;53.180;5.812;2024-02-21T01:29:05;10.40;;;3.65;;
52848;SDS011;38714;53.180;5.812;2024-02-21T01:31:31;9.93;;;3.00;;
52848;SDS011;38714;53.180;5.812;2024-02-21T01:33:56;10.75;;;2.95;;
52848;SDS011;38714;53.180;5.812;2024-02-21T01:36:23;7.88;;;2.05;;
52848;SDS011;38714;53.180;5.812;2024-02-21T01:38:48;5.00;;;2.85;;
52848;SDS011;38714;53.180;5.812;2024-02-21T01:41:14;9.77;;;3.28;;
52848;SDS011;38714;53.180;5.812;2024-02-21T01:43:41;7.30;;;2.22;;
52848;SDS011;38714;53.180;5.812;2024-02-21T01:46:07;11.00;;;2.78;;
52848;SDS011;38714;53.180;5.812;2024-02-21T01:48:33;5.22;;;1.92;;
52848;SDS011;38714;53.180;5.812;2024-02-21T01:50:59;7.13;;;2.22;;
52848;SDS011;38714;53.180;5.812;2024-02-21T01:53:27;16.05;;;2.92;;
52848;SDS011;38714;53.180;5.812;2024-02-21T01:55:55;7.90;;;2.42;;
52848;SDS011;38714;53.180;5.812;2024-02-21T01:58:21;7.82;;;2.83;;
52848;SDS011;38714;53.180;5.812;2024-02-21T02:00:47;7.53;;;3.03;;
52848;SDS011;38714;53.180;5.812;2024-02-21T02:03:13;6.10;;;2.38;;
52848;SDS011;38714;53.180;5.812;2024-02-21T02:05:49;9.25;;;1.83;;
52848;SDS011;38714;53.180;5.812;2024-02-21T02:08:15;5.25;;;2.45;;
52848;SDS011;38714;53.180;5.812;2024-02-21T02:10:41;6.03;;;1.88;;
52848;SDS011;38714;53.180;5.812;2024-02-21T02:13:08;3.03;;;1.58;;
52848;SDS011;38714;53.180;5.812;2024-02-21T02:15:37;9.10;;;2.58;;
52848;SDS011;38714;53.180;5.812;2024-02-21T02:18:10;7.03;;;3.05;;
52848;SDS011;38714;53.180;5.812;2024-02-21T02:20:37;5.90;;;2.35;;
52848;SDS011;38714;53.180;5.812;2024-02-21T02:23:16;16.30;;;2.90;;
52848;SDS011;38714;53.180;5.812;2024-02-21T02:25:49;5.03;;;2.30;;
52848;SDS011;38714;53.180;5.812;2024-02-21T02:28:18;6.28;;;2.40;;
52848;SDS011;38714;53.180;5.812;2024-02-21T02:30:44;10.15;;;2.42;;
52848;SDS011;38714;53.180;5.812;2024-02-21T02:33:10;8.60;;;2.63;;
52848;SDS011;38714;53.180;5.812;2024-02-21T02:35:35;9.60;;;2.55;;
52848;SDS011;38714;53.180;5.812;2024-02-21T02:38:02;6.00;;;2.65;;
52848;SDS011;38714;53.180;5.812;2024-02-21T02:40:28;5.82;;;2.25;;
52848;SDS011;38714;53.180;5.812;2024-02-21T02:42:54;8.43;;;2.30;;
52848;SDS011;38714;53.180;5.812;2024-02-21T02:45:20;14.95;;;3.17;;
52848;SDS011;38714;53.180;5.812;2024-02-21T02:47:48;4.15;;;1.83;;
52848;SDS011;38714;53.180;5.812;2024-02-21T02:50:14;7.63;;;3.47;;
52848;SDS011;38714;53.180;5.812;2024-02-21T02:52:39;10.25;;;2.17;;
52848;SDS011;38714;53.180;5.812;2024-02-21T02:55:05;7.50;;;2.55;;
52848;SDS011;38714;53.180;5.812;2024-02-21T02:57:32;5.65;;;2.60;;
52848;SDS011;38714;53.180;5.812;2024-02-21T02:59:58;11.43;;;3.15;;
52848;SDS011;38714;53.180;5.812;2024-02-21T03:02:23;9.48;;;2.70;;
52848;SDS011;38714;53.180;5.812;2024-02-21T03:04:49;4.28;;;2.30;;
52848;SDS011;38714;53.180;5.812;2024-02-21T03:07:15;14.52;;;3.40;;
52848;SDS011;38714;53.180;5.812;2024-02-21T03:09:41;7.05;;;2.38;;
52848;SDS011;38714;53.180;5.812;2024-02-21T03:12:10;15.25;;;3.00;;
52848;SDS011;38714;53.180;5.812;2024-02-21T03:14:36;10.55;;;2.08;;
52848;SDS011;38714;53.180;5.812;2024-02-21T03:17:02;8.38;;;2.15;;
52848;SDS011;38714;53.180;5.812;2024-02-21T03:19:28;13.32;;;2.15;;
52848;SDS011;38714;53.180;5.812;2024-02-21T03:21:54;4.80;;;2.60;;
52848;SDS011;38714;53.180;5.812;2024-02-21T03:24:20;4.35;;;2.95;;
52848;SDS011;38714;53.180;5.812;2024-02-21T03:26:46;5.80;;;2.40;;
52848;SDS011;38714;53.180;5.812;2024-02-21T03:29:15;11.55;;;2.53;;
52848;SDS011;38714;53.180;5.812;2024-02-21T03:31:41;11.55;;;3.55;;
52848;SDS011;38714;53.180;5.812;2024-02-21T03:34:08;4.97;;;2.53;;
52848;SDS011;38714;53.180;5.812;2024-02-21T03:36:35;14.15;;;3.67;;
52848;SDS011;38714;53.180;5.812;2024-02-21T03:39:00;9.65;;;3.53;;
52848;SDS011;38714;53.180;5.812;2024-02-21T03:41:26;10.68;;;2.30;;
52848;SDS011;38714;53.180;5.812;2024-02-21T03:43:52;6.35;;;2.65;;
52848;SDS011;38714;53.180;5.812;2024-02-21T03:46:17;4.05;;;2.03;;
52848;SDS011;38714;53.180;5.812;2024-02-21T03:48:43;6.78;;;3.15;;
52848;SDS011;38714;53.180;5.812;2024-02-21T03:51:08;3.78;;;2.10;;
52848;SDS011;38714;53.180;5.812;2024-02-21T03:53:34;5.05;;;1.90;;
52848;SDS011;38714;53.180;5.812;2024-02-21T03:56:03;3.63;;;1.65;;
52848;SDS011;38714;53.180;5.812;2024-02-21T03:58:32;9.52;;;2.35;;
52848;SDS011;38714;53.180;5.812;2024-02-21T04:01:01;4.97;;;1.80;;
52848;SDS011;38714;53.180;5.812;2024-02-21T04:03:27;8.73;;;2.17;;
52848;SDS011;38714;53.180;5.812;2024-02-21T04:05:53;7.03;;;2.40;;
52848;SDS011;38714;53.180;5.812;2024-02-21T04:08:19;6.95;;;2.05;;
52848;SDS011;38714;53.180;5.812;2024-02-21T04:10:44;7.68;;;2.60;;
52848;SDS011;38714;53.180;5.812;2024-02-21T04:13:10;4.97;;;1.83;;
52848;SDS011;38714;53.180;5.812;2024-02-21T04:15:35;8.65;;;2.78;;
52848;SDS011;38714;53.180;5.812;2024-02-21T04:18:01;8.43;;;1.75;;
52848;SDS011;38714;53.180;5.812;2024-02-21T04:20:29;14.25;;;3.13;;
52848;SDS011;38714;53.180;5.812;2024-02-21T04:22:55;9.75;;;2.15;;
52848;SDS011;38714;53.180;5.812;2024-02-21T04:25:21;9.27;;;2.70;;
52848;SDS011;38714;53.180;5.812;2024-02-21T04:27:46;7.32;;;2.13;;
52848;SDS011;38714;53.180;5.812;2024-02-21T04:30:12;10.13;;;2.17;;
52848;SDS011;38714;53.180;5.812;2024-02-21T04:32:38;12.48;;;2.30;;
52848;SDS011;38714;53.180;5.812;2024-02-21T04:35:04;8.88;;;2.28;;
52848;SDS011;38714;53.180;5.812;2024-02-21T04:37:30;6.00;;;1.95;;
52848;SDS011;38714;53.180;5.812;2024-02-21T04:39:56;8.15;;;2.88;;
52848;SDS011;38714;53.180;5.812;2024-02-21T04:42:21;6.25;;;2.83;;
52848;SDS011;38714;53.180;5.812;2024-02-21T04:44:47;10.10;;;3.15;;
52848;SDS011;38714;53.180;5.812;2024-02-21T04:47:13;4.57;;;2.42;;
52848;SDS011;38714;53.180;5.812;2024-02-21T04:49:38;9.68;;;3.17;;
52848;SDS011;38714;53.180;5.812;2024-02-21T04:52:04;21.95;;;2.67;;
52848;SDS011;38714;53.180;5.812;2024-02-21T04:54:30;9.43;;;3.28;;
52848;SDS011;38714;53.180;5.812;2024-02-21T04:56:55;7.10;;;2.63;;
52848;SDS011;38714;53.180;5.812;2024-02-21T04:59:21;6.75;;;2.78;;
52848;SDS011;38714;53.180;5.812;2024-02-21T05:01:46;3.75;;;1.67;;
52848;SDS011;38714;53.180;5.812;2024-02-21T05:04:12;9.52;;;2.75;;
52848;SDS011;38714;53.180;5.812;2024-02-21T05:06:41;2.03;;;1.48;;
52848;SDS011;38714;53.180;5.812;2024-02-21T05:09:07;6.70;;;2.40;;
52848;SDS011;38714;53.180;5.812;2024-02-21T05:11:34;15.88;;;2.05;;
52848;SDS011;38714;53.180;5.812;2024-02-21T05:13:59;4.85;;;2.58;;
52848;SDS011;38714;53.180;5.812;2024-02-21T05:16:25;11.02;;;2.95;;
52848;SDS011;38714;53.180;5.812;2024-02-21T05:18:51;9.63;;;2.80;;
52848;SDS011;38714;53.180;5.812;2024-02-21T05:21:17;9.40;;;2.47;;
52848;SDS011;38714;53.180;5.812;2024-02-21T05:23:42;6.88;;;2.15;;
52848;SDS011;38714;53.180;5.812;2024-02-21T05:26:08;7.03;;;2.53;;
52848;SDS011;38714;53.180;5.812;2024-02-21T05:28:34;9.05;;;2.10;;
52848;SDS011;38714;53.180;5.812;2024-02-21T05:30:59;5.18;;;2.78;;
52848;SDS011;38714;53.180;5.812;2024-02-21T05:33:25;4.65;;;2.30;;
52848;SDS011;38714;53.180;5.812;2024-02-21T05:35:51;6.05;;;2.55;;
52848;SDS011;38714;53.180;5.812;2024-02-21T05:38:17;12.20;;;2.80;;
52848;SDS011;38714;53.180;5.812;2024-02-21T05:40:44;9.73;;;3.15;;
52848;SDS011;38714;53.180;5.812;2024-02-21T05:43:10;8.57;;;2.28;;
52848;SDS011;38714;53.180;5.812;2024-02-21T05:45:35;7.00;;;2.63;;
52848;SDS011;38714;53.180;5.812;2024-02-21T05:48:01;6.82;;;2.80;;
52848;SDS011;38714;53.180;5.812;2024-02-21T05:50:27;5.57;;;2.42;;
52848;SDS011;38714;53.180;5.812;2024-02-21T05:52:56;7.53;;;2.58;;
52848;SDS011;38714;53.180;5.812;2024-02-21T05:55:22;11.27;;;3.42;;
52848;SDS011;38714;53.180;5.812;2024-02-21T05:57:48;5.85;;;2.88;;
52848;SDS011;38714;53.180;5.812;2024-02-21T06:00:14;7.82;;;3.03;;
52848;SDS011;38714;53.180;5.812;2024-02-21T06:02:40;6.45;;;2.50;;
52848;SDS011;38714;53.180;5.812;2024-02-21T06:05:06;10.07;;;2.53;;
52848;SDS011;38714;53.180;5.812;2024-02-21T06:07:33;11.80;;;2.45;;
52848;SDS011;38714;53.180;5.812;2024-02-21T06:09:59;9.02;;;3.10;;
52848;SDS011;38714;53.180;5.812;2024-02-21T06:12:26;8.27;;;1.83;;
52848;SDS011;38714;53.180;5.812;2024-02-21T06:14:52;10.10;;;1.95;;
52848;SDS011;38714;53.180;5.812;2024-02-21T06:17:18;4.55;;;1.92;;
52848;SDS011;38714;53.180;5.812;2024-02-21T06:19:43;10.50;;;2.90;;
52848;SDS011;38714;53.180;5.812;2024-02-21T06:22:09;6.63;;;3.05;;
52848;SDS011;38714;53.180;5.812;2024-02-21T06:24:35;7.00;;;3.13;;
52848;SDS011;38714;53.180;5.812;2024-02-21T06:27:07;11.20;;;2.72;;
52848;SDS011;38714;53.180;5.812;2024-02-21T06:29:33;10.50;;;2.83;;
52848;SDS011;38714;53.180;5.812;2024-02-21T06:31:59;6.43;;;2.70;;
52848;SDS011;38714;53.180;5.812;2024-02-21T06:34:25;9.45;;;3.75;;
52848;SDS011;38714;53.180;5.812;2024-02-21T06:36:50;7.15;;;1.83;;
52848;SDS011;38714;53.180;5.812;2024-02-21T06:39:16;7.72;;;3.38;;
52848;SDS011;38714;53.180;5.812;2024-02-21T06:41:42;8.10;;;2.28;;
52848;SDS011;38714;53.180;5.812;2024-02-21T06:44:08;8.90;;;3.38;;
52848;SDS011;38714;53.180;5.812;2024-02-21T06:46:33;10.98;;;2.83;;
52848;SDS011;38714;53.180;5.812;2024-02-21T06:48:59;4.82;;;1.95;;
52848;SDS011;38714;53.180;5.812;2024-02-21T06:51:25;9.45;;;3.20;;
52848;SDS011;38714;53.180;5.812;2024-02-21T06:53:52;6.30;;;2.75;;
52848;SDS011;38714;53.180;5.812;2024-02-21T06:56:18;7.10;;;2.65;;
52848;SDS011;38714;53.180;5.812;2024-02-21T06:58:44;8.27;;;2.95;;
52848;SDS011;38714;53.180;5.812;2024-02-21T07:01:10;7.45;;;3.13;;
52848;SDS011;38714;53.180;5.812;2024-02-21T07:03:35;9.82;;;3.05;;
52848;SDS011;38714;53.180;5.812;2024-02-21T07:06:01;11.55;;;3.65;;
52848;SDS011;38714;53.180;5.812;2024-02-21T07:08:26;6.07;;;2.88;;
52848;SDS011;38714;53.180;5.812;2024-02-21T07:10:52;15.32;;;3.13;;
52848;SDS011;38714;53.180;5.812;2024-02-21T07:13:18;8.70;;;3.90;;
52848;SDS011;38714;53.180;5.812;2024-02-21T07:15:43;12.80;;;3.80;;
52848;SDS011;38714;53.180;5.812;2024-02-21T07:18:09;16.40;;;5.20;;
52848;SDS011;38714;53.180;5.812;2024-02-21T07:20:34;14.25;;;4.00;;
52848;SDS011;38714;53.180;5.812;2024-02-21T07:23:02;22.88;;;5.55;;
52848;SDS011;38714;53.180;5.812;2024-02-21T07:25:29;7.47;;;4.97;;
52848;SDS011;38714;53.180;5.812;2024-02-21T07:27:54;13.27;;;4.05;;
52848;SDS011;38714;53.180;5.812;2024-02-21T07:30:20;11.88;;;4.80;;
52848;SDS011;38714;53.180;5.812;2024-02-21T07:32:48;15.10;;;4.82;;
52848;SDS011;38714;53.180;5.812;2024-02-21T07:35:15;9.73;;;5.90;;
52848;SDS011;38714;53.180;5.812;2024-02-21T07:37:40;11.98;;;6.15;;
52848;SDS011;38714;53.180;5.812;2024-02-21T07:40:06;9.25;;;4.40;;
52848;SDS011;38714;53.180;5.812;2024-02-21T07:42:37;13.65;;;4.85;;
52848;SDS011;38714;53.180;5.812;2024-02-21T07:45:02;14.98;;;5.72;;
52848;SDS011;38714;53.180;5.812;2024-02-21T07:47:28;13.20;;;5.32;;
52848;SDS011;38714;53.180;5.812;2024-02-21T07:49:54;15.82;;;6.13;;
52848;SDS011;38714;53.180;5.812;2024-02-21T07:52:20;15.48;;;5.88;;
52848;SDS011;38714;53.180;5.812;2024-02-21T07:54:45;20.50;;;6.43;;
52848;SDS011;38714;53.180;5.812;2024-02-21T07:57:11;17.00;;;5.30;;
52848;SDS011;38714;53.180;5.812;2024-02-21T07:59:36;25.25;;;6.93;;
52848;SDS011;38714;53.180;5.812;2024-02-21T08:02:02;20.73;;;6.15;;
52848;SDS011;38714;53.180;5.812;2024-02-21T08:04:31;14.85;;;5.40;;
52848;SDS011;38714;53.180;5.812;2024-02-21T08:06:57;22.08;;;6.18;;
52848;SDS011;38714;53.180;5.812;2024-02-21T08:09:26;16.50;;;5.85;;
52848;SDS011;38714;53.180;5.812;2024-02-21T08:11:52;12.77;;;3.58;;
52848;SDS011;38714;53.180;5.812;2024-02-21T08:14:19;13.00;;;5.03;;
52848;SDS011;38714;53.180;5.812;2024-02-21T08:16:44;7.85;;;4.22;;
52848;SDS011;38714;53.180;5.812;2024-02-21T08:19:10;9.55;;;4.57;;
52848;SDS011;38714;53.180;5.812;2024-02-21T08:21:36;9.48;;;4.75;;
52848;SDS011;38714;53.180;5.812;2024-02-21T08:24:01;8.77;;;5.45;;
52848;SDS011;38714;53.180;5.812;2024-02-21T08:26:27;9.90;;;4.22;;
52848;SDS011;38714;53.180;5.812;2024-02-21T08:28:55;17.13;;;4.07;;
52848;SDS011;38714;53.180;5.812;2024-02-21T08:31:25;9.48;;;3.72;;
52848;SDS011;38714;53.180;5.812;2024-02-21T08:33:56;8.65;;;3.67;;
52848;SDS011;38714;53.180;5.812;2024-02-21T08:36:27;3.95;;;2.50;;
52848;SDS011;38714;53.180;5.812;2024-02-21T08:38:54;4.35;;;2.50;;
52848;SDS011;38714;53.180;5.812;2024-02-21T08:41:20;7.28;;;2.70;;
52848;SDS011;38714;53.180;5.812;2024-02-21T08:43:48;9.38;;;3.95;;
52848;SDS011;38714;53.180;5.812;2024-02-21T08:46:14;6.78;;;2.35;;
52848;SDS011;38714;53.180;5.812;2024-02-21T08:48:39;15.48;;;3.40;;
52848;SDS011;38714;53.180;5.812;2024-02-21T08:51:05;10.95;;;5.32;;
52848;SDS011;38714;53.180;5.812;2024-02-21T08:53:31;6.00;;;3.80;;
52848;SDS011;38714;53.180;5.812;2024-02-21T08:55:56;7.50;;;3.70;;
52848;SDS011;38714;53.180;5.812;2024-02-21T08:58:22;15.32;;;5.05;;
52848;SDS011;38714;53.180;5.812;2024-02-21T09:00:49;8.23;;;4.38;;
52848;SDS011;38714;53.180;5.812;2024-02-21T09:03:16;16.92;;;5.18;;
52848;SDS011;38714;53.180;5.812;2024-02-21T09:05:42;21.33;;;5.20;;
52848;SDS011;38714;53.180;5.812;2024-02-21T09:08:08;14.32;;;6.30;;
52848;SDS011;38714;53.180;5.812;2024-02-21T09:10:34;12.15;;;5.53;;
52848;SDS011;38714;53.180;5.812;2024-02-21T09:12:59;8.45;;;4.63;;
52848;SDS011;38714;53.180;5.812;2024-02-21T09:15:25;13.27;;;5.40;;
52848;SDS011;38714;53.180;5.812;2024-02-21T09:17:51;7.82;;;5.93;;
52848;SDS011;38714;53.180;5.812;2024-02-21T09:20:17;19.20;;;7.18;;
52848;SDS011;38714;53.180;5.812;2024-02-21T09:22:43;11.82;;;5.85;;
52848;SDS011;38714;53.180;5.812;2024-02-21T09:25:08;12.20;;;5.47;;
52848;SDS011;38714;53.180;5.812;2024-02-21T09:27:36;12.23;;;7.30;;
52848;SDS011;38714;53.180;5.812;2024-02-21T09:30:03;9.43;;;4.72;;
52848;SDS011;38714;53.180;5.812;2024-02-21T09:32:30;9.27;;;4.82;;
52848;SDS011;38714;53.180;5.812;2024-02-21T09:34:55;6.95;;;4.88;;
52848;SDS011;38714;53.180;5.812;2024-02-21T09:37:21;8.68;;;6.05;;
52848;SDS011;38714;53.180;5.812;2024-02-21T09:39:47;10.57;;;5.43;;
52848;SDS011;38714;53.180;5.812;2024-02-21T09:42:13;13.18;;;5.85;;
52848;SDS011;38714;53.180;5.812;2024-02-21T09:44:42;9.40;;;5.68;;
52848;SDS011;38714;53.180;5.812;2024-02-21T09:47:12;12.98;;;5.78;;
52848;SDS011;38714;53.180;5.812;2024-02-21T09:49:46;14.75;;;6.80;;
52848;SDS011;38714;53.180;5.812;2024-02-21T09:52:12;9.80;;;6.38;;
52848;SDS011;38714;53.180;5.812;2024-02-21T09:54:40;10.43;;;6.60;;
52848;SDS011;38714;53.180;5.812;2024-02-21T09:57:09;18.13;;;5.85;;
52848;SDS011;38714;53.180;5.812;2024-02-21T09:59:35;9.45;;;5.07;;
52848;SDS011;38714;53.180;5.812;2024-02-21T10:02:02;11.18;;;7.00;;
52848;SDS011;38714;53.180;5.812;2024-02-21T10:04:28;11.15;;;6.40;;
52848;SDS011;38714;53.180;5.812;2024-02-21T10:06:54;11.27;;;6.05;;
52848;SDS011;38714;53.180;5.812;2024-02-21T10:09:21;11.60;;;5.63;;
52848;SDS011;38714;53.180;5.812;2024-02-21T10:11:52;14.85;;;6.78;;
52848;SDS011;38714;53.180;5.812;2024-02-21T10:14:18;13.13;;;6.75;;
52848;SDS011;38714;53.180;5.812;2024-02-21T10:16:45;12.32;;;6.00;;
52848;SDS011;38714;53.180;5.812;2024-02-21T10:19:20;13.73;;;6.80;;
52848;SDS011;38714;53.180;5.812;2024-02-21T10:22:02;9.00;;;5.82;;
52848;SDS011;38714;53.180;5.812;2024-02-21T10:24:29;10.63;;;5.65;;
52848;SDS011;38714;53.180;5.812;2024-02-21T10:27:05;9.20;;;5.55;;
52848;SDS011;38714;53.180;5.812;2024-02-21T10:29:34;11.40;;;6.53;;
52848;SDS011;38714;53.180;5.812;2024-02-21T10:32:07;10.70;;;6.72;;
52848;SDS011;38714;53.180;5.812;2024-02-21T10:34:37;12.10;;;6.50;;
52848;SDS011;38714;53.180;5.812;2024-02-21T10:37:06;16.42;;;7.35;;
52848;SDS011;38714;53.180;5.812;2024-02-21T10:39:38;19.60;;;6.80;;
52848;SDS011;38714;53.180;5.812;2024-02-21T10:42:04;14.48;;;6.43;;
52848;SDS011;38714;53.180;5.812;2024-02-21T10:44:31;11.20;;;5.60;;
52848;SDS011;38714;53.180;5.812;2024-02-21T10:46:58;8.45;;;5.82;;
52848;SDS011;38714;53.180;5.812;2024-02-21T10:49:25;11.75;;;6.45;;
52848;SDS011;38714;53.180;5.812;2024-02-21T10:52:17;14.00;;;6.85;;
52848;SDS011;38714;53.180;5.812;2024-02-21T10:54:44;11.82;;;6.57;;
52848;SDS011;38714;53.180;5.812;2024-02-21T10:57:13;12.80;;;5.80;;
52848;SDS011;38714;53.180;5.812;2024-02-21T10:59:41;13.73;;;6.68;;
52848;SDS011;38714;53.180;5.812;2024-02-21T11:02:10;14.65;;;6.22;;
52848;SDS011;38714;53.180;5.812;2024-02-21T11:04:35;12.40;;;5.97;;
52848;SDS011;38714;53.180;5.812;2024-02-21T11:07:05;10.75;;;6.47;;
52848;SDS011;38714;53.180;5.812;2024-02-21T11:09:31;12.57;;;6.70;;
52848;SDS011;38714;53.180;5.812;2024-02-21T11:11:57;9.15;;;5.72;;
52848;SDS011;38714;53.180;5.812;2024-02-21T11:14:25;10.52;;;6.10;;
52848;SDS011;38714;53.180;5.812;2024-02-21T11:16:52;11.95;;;7.00;;
52848;SDS011;38714;53.180;5.812;2024-02-21T11:21:47;10.55;;;6.07;;
52848;SDS011;38714;53.180;5.812;2024-02-21T11:24:13;9.48;;;6.35;;
52848;SDS011;38714;53.180;5.812;2024-02-21T11:26:50;17.10;;;6.97;;
52848;SDS011;38714;53.180;5.812;2024-02-21T11:29:15;14.40;;;7.13;;
52848;SDS011;38714;53.180;5.812;2024-02-21T11:31:48;11.80;;;6.40;;
52848;SDS011;38714;53.180;5.812;2024-02-21T11:34:16;14.30;;;6.70;;
52848;SDS011;38714;53.180;5.812;2024-02-21T11:36:47;12.43;;;6.03;;
52848;SDS011;38714;53.180;5.812;2024-02-21T11:39:24;9.80;;;6.05;;
52848;SDS011;38714;53.180;5.812;2024-02-21T11:42:03;10.50;;;6.43;;
52848;SDS011;38714;53.180;5.812;2024-02-21T11:44:31;21.70;;;6.28;;
52848;SDS011;38714;53.180;5.812;2024-02-21T11:46:57;12.52;;;6.63;;
52848;SDS011;38714;53.180;5.812;2024-02-21T11:49:28;13.75;;;8.13;;
52848;SDS011;38714;53.180;5.812;2024-02-21T11:52:01;11.23;;;6.78;;
52848;SDS011;38714;53.180;5.812;2024-02-21T11:54:29;17.30;;;8.98;;
52848;SDS011;38714;53.180;5.812;2024-02-21T11:56:55;12.20;;;6.25;;
52848;SDS011;38714;53.180;5.812;2024-02-21T11:59:21;10.35;;;5.65;;
52848;SDS011;38714;53.180;5.812;2024-02-21T12:01:47;9.90;;;6.65;;
52848;SDS011;38714;53.180;5.812;2024-02-21T12:04:13;9.05;;;6.47;;
52848;SDS011;38714;53.180;5.812;2024-02-21T12:06:42;12.25;;;6.30;;
52848;SDS011;38714;53.180;5.812;2024-02-21T12:09:08;7.50;;;5.53;;
52848;SDS011;38714;53.180;5.812;2024-02-21T12:11:34;9.85;;;4.93;;
52848;SDS011;38714;53.180;5.812;2024-02-21T12:14:00;10.65;;;6.22;;
52848;SDS011;38714;53.180;5.812;2024-02-21T12:16:28;10.32;;;6.03;;
52848;SDS011;38714;53.180;5.812;2024-02-21T12:18:55;16.48;;;5.78;;
52848;SDS011;38714;53.180;5.812;2024-02-21T12:21:31;10.23;;;5.95;;
52848;SDS011;38714;53.180;5.812;2024-02-21T12:23:59;11.27;;;5.82;;
52848;SDS011;38714;53.180;5.812;2024-02-21T12:26:25;16.25;;;6.57;;
52848;SDS011;38714;53.180;5.812;2024-02-21T12:28:52;12.10;;;5.50;;
52848;SDS011;38714;53.180;5.812;2024-02-21T12:31:18;14.73;;;6.90;;
52848;SDS011;38714;53.180;5.812;2024-02-21T12:33:44;6.75;;;4.32;;
52848;SDS011;38714;53.180;5.812;2024-02-21T12:36:09;11.13;;;5.65;;
52848;SDS011;38714;53.180;5.812;2024-02-21T12:38:36;10.95;;;5.90;;
52848;SDS011;38714;53.180;5.812;2024-02-21T12:41:01;10.60;;;4.57;;
52848;SDS011;38714;53.180;5.812;2024-02-21T12:43:28;8.88;;;4.70;;
52848;SDS011;38714;53.180;5.812;2024-02-21T12:45:54;6.00;;;4.03;;
52848;SDS011;38714;53.180;5.812;2024-02-21T12:48:19;8.98;;;5.25;;
52848;SDS011;38714;53.180;5.812;2024-02-21T12:50:49;9.43;;;4.25;;
52848;SDS011;38714;53.180;5.812;2024-02-21T12:53:21;4.28;;;3.67;;
52848;SDS011;38714;53.180;5.812;2024-02-21T12:55:48;4.05;;;2.75;;
52848;SDS011;38714;53.180;5.812;2024-02-21T12:58:13;6.80;;;3.58;;
52848;SDS011;38714;53.180;5.812;2024-02-21T13:00:39;5.53;;;4.28;;
52848;SDS011;38714;53.180;5.812;2024-02-21T13:03:05;6.53;;;3.47;;
52848;SDS011;38714;53.180;5.812;2024-02-21T13:05:31;10.55;;;5.15;;
52848;SDS011;38714;53.180;5.812;2024-02-21T13:08:00;4.57;;;3.22;;
52848;SDS011;38714;53.180;5.812;2024-02-21T13:10:25;7.25;;;3.88;;
52848;SDS011;38714;53.180;5.812;2024-02-21T13:12:51;6.00;;;3.58;;
52848;SDS011;38714;53.180;5.812;2024-02-21T13:15:17;8.45;;;4.13;;
52848;SDS011;38714;53.180;5.812;2024-02-21T13:17:46;11.60;;;4.75;;
52848;SDS011;38714;53.180;5.812;2024-02-21T13:20:11;6.05;;;2.40;;
52848;SDS011;38714;53.180;5.812;2024-02-21T13:22:38;4.82;;;3.05;;
52848;SDS011;38714;53.180;5.812;2024-02-21T13:25:04;6.22;;;3.65;;
52848;SDS011;38714;53.180;5.812;2024-02-21T13:27:32;6.82;;;3.58;;
52848;SDS011;38714;53.180;5.812;2024-02-21T13:29:58;8.70;;;4.55;;
52848;SDS011;38714;53.180;5.812;2024-02-21T13:32:25;5.05;;;3.05;;
52848;SDS011;38714;53.180;5.812;2024-02-21T13:34:51;4.88;;;2.58;;
52848;SDS011;38714;53.180;5.812;2024-02-21T13:37:17;5.68;;;3.03;;
52848;SDS011;38714;53.180;5.812;2024-02-21T13:39:43;5.15;;;3.20;;
52848;SDS011;38714;53.180;5.812;2024-02-21T13:42:09;3.53;;;2.63;;
52848;SDS011;38714;53.180;5.812;2024-02-21T13:44:35;7.97;;;3.15;;
52848;SDS011;38714;53.180;5.812;2024-02-21T13:47:01;4.20;;;2.67;;
52848;SDS011;38714;53.180;5.812;2024-02-21T13:49:27;4.80;;;2.78;;
52848;SDS011;38714;53.180;5.812;2024-02-21T13:51:53;5.32;;;2.70;;
52848;SDS011;38714;53.180;5.812;2024-02-21T13:54:19;5.07;;;2.63;;
52848;SDS011;38714;53.180;5.812;2024-02-21T13:56:46;5.60;;;2.92;;
52848;SDS011;38714;53.180;5.812;2024-02-21T13:59:12;5.15;;;3.03;;
52848;SDS011;38714;53.180;5.812;2024-02-21T14:01:41;4.75;;;2.97;;
52848;SDS011;38714;53.180;5.812;2024-02-21T14:04:07;5.43;;;2.78;;
52848;SDS011;38714;53.180;5.812;2024-02-21T14:06:33;8.57;;;3.70;;
52848;SDS011;38714;53.180;5.812;2024-02-21T14:08:59;4.93;;;2.90;;
52848;SDS011;38714;53.180;5.812;2024-02-21T14:11:24;5.07;;;3.10;;
52848;SDS011;38714;53.180;5.812;2024-02-21T14:13:51;3.50;;;3.20;;
52848;SDS011;38714;53.180;5.812;2024-02-21T14:16:18;6.35;;;2.55;;
52848;SDS011;38714;53.180;5.812;2024-02-21T14:18:43;7.22;;;2.78;;
52848;SDS011;38714;53.180;5.812;2024-02-21T14:21:09;4.85;;;2.95;;
52848;SDS011;38714;53.180;5.812;2024-02-21T14:23:40;3.80;;;3.13;;
52848;SDS011;38714;53.180;5.812;2024-02-21T14:26:06;8.80;;;4.75;;
52848;SDS011;38714;53.180;5.812;2024-02-21T14:28:32;4.85;;;3.03;;
52848;SDS011;38714;53.180;5.812;2024-02-21T14:31:01;5.47;;;3.70;;
52848;SDS011;38714;53.180;5.812;2024-02-21T14:33:28;6.13;;;3.70;;
52848;SDS011;38714;53.180;5.812;2024-02-21T14:35:54;4.95;;;3.53;;
52848;SDS011;38714;53.180;5.812;2024-02-21T14:38:20;6.05;;;3.90;;
52848;SDS011;38714;53.180;5.812;2024-02-21T14:40:46;4.63;;;2.88;;
52848;SDS011;38714;53.180;5.812;2024-02-21T14:43:11;4.57;;;3.05;;